createdAt,value
2019-03-05T00:01:49.518Z,98959.19
2019-03-05T00:04:19.279Z,98958.39
2019-03-05T00:06:49.107Z,98969.08
2019-03-05T00:09:20.543Z,98963.17
2019-03-05T00:11:50.265Z,98969.62
2019-03-05T00:14:22.642Z,98960.95
2019-03-05T00:16:52.376Z,98969.77
2019-03-05T00:19:22.134Z,98969.33
2019-03-05T00:21:51.848Z,98970.23
2019-03-05T00:24:59.667Z,98975.61
2019-03-05T00:27:30.285Z,98977.83
2019-03-05T00:30:19.816Z,98985.07
2019-03-05T00:32:52.659Z,98991.91
2019-03-05T00:35:45.400Z,98985.13
2019-03-05T00:38:50.285Z,98990.36
2019-03-05T00:41:32.023Z,98993.92
2019-03-05T00:44:07.814Z,98995.11
2019-03-05T00:46:46.776Z,99005.77
2019-03-05T00:49:19.661Z,99009.88
2019-03-05T00:51:52.510Z,99025.06
2019-03-05T00:54:40.223Z,99021.67
2019-03-05T00:57:15.782Z,99023.08
2019-03-05T01:00:17.812Z,99016.21
2019-03-05T01:02:50.662Z,99029.62
2019-03-05T01:05:50.227Z,99025.86
2019-03-05T01:08:20.052Z,99029.97
2019-03-05T01:10:49.814Z,99035.10
2019-03-05T01:13:19.616Z,99031.39
2019-03-05T01:15:49.507Z,99033.11
2019-03-05T01:18:19.222Z,99040.77
2019-03-05T01:20:48.980Z,99038.14
2019-03-05T01:23:18.736Z,99048.45
2019-03-05T01:25:48.558Z,99049.30
2019-03-05T01:28:18.461Z,99046.82
2019-03-05T01:31:06.202Z,99050.00
2019-03-05T01:33:40.353Z,99045.19
2019-03-05T01:36:11.703Z,99045.93
2019-03-05T01:38:49.065Z,99045.80
2019-03-05T01:41:18.971Z,99059.20
2019-03-05T01:43:48.772Z,99055.69
2019-03-05T01:46:18.565Z,99053.73
2019-03-05T01:48:48.334Z,99063.20
2019-03-05T01:51:18.093Z,99058.51
2019-03-05T01:53:47.930Z,99067.98
2019-03-05T01:56:17.659Z,99074.19
2019-03-05T01:58:47.423Z,99073.09
2019-03-05T02:01:19.381Z,99065.81
2019-03-05T02:03:49.150Z,99074.51
2019-03-05T02:06:18.877Z,99078.96
2019-03-05T02:08:48.635Z,99080.27
2019-03-05T02:11:18.368Z,99088.06
2019-03-05T02:13:48.134Z,99078.52
2019-03-05T02:16:17.946Z,99079.03
2019-03-05T02:18:47.734Z,99080.88
2019-03-05T02:21:17.471Z,99088.22
2019-03-05T02:24:02.256Z,99086.42
2019-03-05T02:26:59.474Z,99085.36
2019-03-05T02:29:47.264Z,99090.66
2019-03-05T02:32:28.862Z,99088.05
2019-03-05T02:35:04.640Z,99091.89
2019-03-05T02:37:43.334Z,99091.78
2019-03-05T02:40:22.469Z,99092.78
2019-03-05T02:43:10.594Z,99099.58
2019-03-05T02:46:01.374Z,99100.32
2019-03-05T02:48:55.514Z,99104.86
2019-03-05T02:51:28.432Z,99111.61
2019-03-05T02:54:04.008Z,99103.61
2019-03-05T02:56:45.670Z,99106.88
2019-03-05T02:59:14.321Z,99106.92
2019-03-05T03:01:48.393Z,99104.88
2019-03-05T03:04:22.692Z,99111.01
2019-03-05T03:06:52.445Z,99107.78
2019-03-05T03:09:25.402Z,99105.62
2019-03-05T03:11:55.193Z,99110.56
2019-03-05T03:14:24.914Z,99115.22
2019-03-05T03:16:54.713Z,99119.51
2019-03-05T03:19:24.442Z,99118.08
2019-03-05T03:21:54.202Z,99115.02
2019-03-05T03:24:23.962Z,99113.22
2019-03-05T03:26:53.740Z,99114.00
2019-03-05T03:29:23.503Z,99120.95
2019-03-05T03:31:53.272Z,99117.19
2019-03-05T03:34:23.042Z,99114.00
2019-03-05T03:36:52.795Z,99116.57
2019-03-05T03:39:22.548Z,99119.63
2019-03-05T03:41:52.280Z,99118.38
2019-03-05T03:44:22.060Z,99128.58
2019-03-05T03:46:51.838Z,99127.89
2019-03-05T03:49:21.618Z,99129.77
2019-03-05T03:51:51.658Z,99131.60
2019-03-05T03:54:21.551Z,99133.52
2019-03-05T03:56:51.310Z,99134.16
2019-03-05T03:59:21.065Z,99133.08
2019-03-05T04:01:50.832Z,99128.09
2019-03-05T04:04:20.556Z,99129.06
2019-03-05T04:06:50.314Z,99125.26
2019-03-05T04:09:20.135Z,99133.25
2019-03-05T04:11:49.882Z,99129.38
2019-03-05T04:14:19.603Z,99140.27
2019-03-05T04:16:49.373Z,99144.79
2019-03-05T04:19:20.674Z,99149.60
2019-03-05T04:21:50.439Z,99151.40
2019-03-05T04:24:20.166Z,99152.70
2019-03-05T04:26:49.920Z,99150.05
2019-03-05T04:29:19.637Z,99151.77
2019-03-05T04:31:49.403Z,99157.10
2019-03-05T04:34:19.128Z,99152.26
2019-03-05T04:36:48.875Z,99156.63
2019-03-05T04:39:18.606Z,99159.91
2019-03-05T04:41:48.361Z,99159.98
2019-03-05T04:44:19.666Z,99150.28
2019-03-05T04:46:50.629Z,99133.84
2019-03-05T04:49:26.552Z,99145.53
2019-03-05T04:51:58.127Z,99143.74
2019-03-05T04:54:27.854Z,99141.98
2019-03-05T04:56:57.615Z,99137.95
2019-03-05T04:59:27.332Z,99142.73
2019-03-05T05:01:57.124Z,99144.16
2019-03-05T05:04:26.844Z,99143.59
2019-03-05T05:06:56.638Z,99142.70
2019-03-05T05:09:29.404Z,99153.64
2019-03-05T05:11:59.227Z,99144.82
2019-03-05T05:14:33.430Z,99148.81
2019-03-05T05:17:03.243Z,99147.52
2019-03-05T05:19:32.964Z,99147.06
2019-03-05T05:22:03.283Z,99153.00
2019-03-05T05:24:33.020Z,99153.78
2019-03-05T05:27:02.794Z,99147.09
2019-03-05T05:29:32.980Z,99148.69
2019-03-05T05:32:02.774Z,99156.05
2019-03-05T05:34:32.549Z,99150.33
2019-03-05T05:37:03.417Z,99153.58
2019-03-05T05:40:09.630Z,99152.23
2019-03-05T05:42:39.392Z,99149.91
2019-03-05T05:45:15.950Z,99149.70
2019-03-05T05:47:47.340Z,99148.72
2019-03-05T05:50:17.103Z,99159.97
2019-03-05T05:52:46.864Z,99169.53
2019-03-05T05:55:16.590Z,99169.86
2019-03-05T05:57:46.618Z,99178.89
2019-03-05T06:00:16.979Z,99174.56
2019-03-05T06:02:46.739Z,99180.57
2019-03-05T06:05:16.473Z,99182.21
2019-03-05T06:07:46.243Z,99182.21
2019-03-05T06:10:15.974Z,99176.08
2019-03-05T06:12:45.737Z,99181.60
2019-03-05T06:15:16.071Z,99178.98
2019-03-05T06:17:45.847Z,99185.03
2019-03-05T06:20:16.679Z,99181.40
2019-03-05T06:22:46.457Z,99186.14
2019-03-05T06:25:16.189Z,99184.42
2019-03-05T06:27:45.945Z,99182.22
2019-03-05T06:30:21.335Z,99182.66
2019-03-05T06:32:51.122Z,99183.73
2019-03-05T06:35:20.858Z,99190.15
2019-03-05T06:37:50.736Z,99189.66
2019-03-05T06:40:23.552Z,99185.16
2019-03-05T06:42:53.365Z,99186.83
2019-03-05T06:45:23.100Z,99193.25
2019-03-05T06:47:56.842Z,99189.12
2019-03-05T06:50:31.069Z,99192.43
2019-03-05T06:53:01.251Z,99193.36
2019-03-05T06:55:31.687Z,99205.84
2019-03-05T06:58:01.939Z,99194.59
2019-03-05T07:00:37.136Z,99200.08
2019-03-05T07:03:14.109Z,99193.44
2019-03-05T07:06:20.915Z,99203.34
2019-03-05T07:08:53.790Z,99188.61
2019-03-05T07:11:46.073Z,99204.41
2019-03-05T07:14:35.710Z,99210.55
2019-03-05T07:17:12.433Z,99210.21
2019-03-05T07:20:01.729Z,99215.28
2019-03-05T07:22:57.895Z,99222.97
2019-03-05T07:25:27.654Z,99225.27
2019-03-05T07:28:00.143Z,99227.35
2019-03-05T07:30:30.973Z,99237.50
2019-03-05T07:33:00.734Z,99240.07
2019-03-05T07:35:32.626Z,99241.06
2019-03-05T07:38:02.418Z,99242.37
2019-03-05T07:40:33.839Z,99244.04
2019-03-05T07:43:03.439Z,99244.13
2019-03-05T07:45:33.192Z,99248.70
2019-03-05T07:48:02.976Z,99240.28
2019-03-05T07:50:32.749Z,99238.28
2019-03-05T07:53:02.522Z,99229.77
2019-03-05T07:55:32.295Z,99240.55
2019-03-05T07:58:02.122Z,99256.80
2019-03-05T08:00:31.847Z,99241.95
2019-03-05T08:03:01.639Z,99247.42
2019-03-05T08:05:31.406Z,99247.72
2019-03-05T08:08:37.425Z,99264.58
2019-03-05T08:11:08.711Z,99258.23
2019-03-05T08:13:41.638Z,99271.66
2019-03-05T08:16:12.957Z,99274.59
2019-03-05T08:18:45.232Z,99265.93
2019-03-05T08:21:14.962Z,99275.05
2019-03-05T08:23:44.746Z,99273.73
2019-03-05T08:26:14.478Z,99277.74
2019-03-05T08:28:44.249Z,99279.42
2019-03-05T08:31:14.016Z,99284.25
2019-03-05T08:33:43.813Z,99285.97
2019-03-05T08:36:13.575Z,99290.59
2019-03-05T08:38:43.336Z,99294.16
2019-03-05T08:41:13.098Z,99299.20
2019-03-05T08:43:42.818Z,99301.12
2019-03-05T08:46:12.578Z,99302.84
2019-03-05T08:48:42.301Z,99314.91
2019-03-05T08:51:12.182Z,99323.91
2019-03-05T08:53:49.490Z,99328.20
2019-03-05T08:56:13.400Z,99327.12
2019-03-05T08:58:43.133Z,99338.71
2019-03-05T09:01:12.921Z,99340.84
2019-03-05T09:03:42.648Z,99345.05
2019-03-05T09:06:12.437Z,99341.31
2019-03-05T09:08:42.165Z,99338.37
2019-03-05T09:11:11.933Z,99351.34
2019-03-05T09:13:41.696Z,99355.39
2019-03-05T09:16:11.485Z,99353.87
2019-03-05T09:18:41.238Z,99362.02
2019-03-05T09:21:13.502Z,99351.35
2019-03-05T09:23:43.465Z,99347.59
2019-03-05T09:26:13.312Z,99356.20
2019-03-05T09:28:43.491Z,99363.50
2019-03-05T09:31:13.337Z,99365.22
2019-03-05T09:33:43.122Z,99354.78
2019-03-05T09:36:12.879Z,99365.28
2019-03-05T09:38:42.902Z,99371.55
2019-03-05T09:41:13.732Z,99373.48
2019-03-05T09:43:43.489Z,99374.23
2019-03-05T09:46:13.620Z,99384.50
2019-03-05T09:48:43.466Z,99382.68
2019-03-05T09:51:13.194Z,99372.47
2019-03-05T09:53:43.947Z,99375.44
2019-03-05T09:56:13.683Z,99386.39
2019-03-05T09:58:43.471Z,99391.06
2019-03-05T10:01:13.203Z,99395.91
2019-03-05T10:03:43.045Z,99399.61
2019-03-05T10:06:12.918Z,99397.30
2019-03-05T10:08:42.676Z,99401.72
2019-03-05T10:11:12.589Z,99407.33
2019-03-05T10:13:42.334Z,99410.05
2019-03-05T10:16:12.096Z,99420.38
2019-03-05T10:18:42.196Z,99421.50
2019-03-05T10:21:12.426Z,99420.83
2019-03-05T10:23:42.156Z,99434.03
2019-03-05T10:26:12.346Z,99435.23
2019-03-05T10:28:42.279Z,99440.66
2019-03-05T10:31:12.055Z,99424.22
2019-03-05T10:33:41.788Z,99437.78
2019-03-05T10:36:13.096Z,99431.31
2019-03-05T10:38:42.832Z,99440.19
2019-03-05T10:41:14.324Z,99440.69
2019-03-05T10:43:44.051Z,99436.08
2019-03-05T10:46:16.083Z,99450.39
2019-03-05T10:48:45.835Z,99449.61
2019-03-05T10:51:20.050Z,99445.09
2019-03-05T10:53:51.276Z,99448.40
2019-03-05T10:56:21.035Z,99438.30
2019-03-05T10:58:50.801Z,99444.31
2019-03-05T11:01:20.795Z,99449.65
2019-03-05T11:03:50.520Z,99452.64
2019-03-05T11:06:20.303Z,99442.56
2019-03-05T11:08:50.454Z,99454.11
2019-03-05T11:11:20.236Z,99446.89
2019-03-05T11:13:50.066Z,99440.67
2019-03-05T11:16:30.121Z,99446.94
2019-03-05T11:18:51.330Z,99446.11
2019-03-05T11:21:21.127Z,99446.27
2019-03-05T11:23:50.892Z,99445.19
2019-03-05T11:26:23.935Z,99441.46
2019-03-05T11:28:54.768Z,99446.63
2019-03-05T11:31:24.774Z,99443.45
2019-03-05T11:33:54.554Z,99446.09
2019-03-05T11:36:24.650Z,99444.08
2019-03-05T11:38:54.408Z,99448.72
2019-03-05T11:41:24.189Z,99452.39
2019-03-05T11:43:54.275Z,99444.28
2019-03-05T11:46:24.016Z,99444.86
2019-03-05T11:48:53.787Z,99455.80
2019-03-05T11:51:23.524Z,99452.64
2019-03-05T11:53:53.321Z,99456.59
2019-03-05T11:56:23.068Z,99456.39
2019-03-05T11:58:52.874Z,99455.55
2019-03-05T12:01:24.192Z,99460.05
2019-03-05T12:03:54.901Z,99465.53
2019-03-05T12:06:26.082Z,99464.58
2019-03-05T12:08:55.985Z,99461.38
2019-03-05T12:11:31.502Z,99461.95
2019-03-05T12:14:06.606Z,99468.80
2019-03-05T12:16:36.523Z,99468.44
2019-03-05T12:19:15.671Z,99461.27
2019-03-05T12:21:46.477Z,99463.57
2019-03-05T12:24:19.947Z,99463.89
2019-03-05T12:26:51.266Z,99466.27
2019-03-05T12:29:22.841Z,99472.14
2019-03-05T12:32:02.634Z,99474.26
2019-03-05T12:34:29.295Z,99478.16
2019-03-05T12:37:00.682Z,99492.78
2019-03-05T12:39:31.674Z,99484.20
2019-03-05T12:42:07.087Z,99491.37
2019-03-05T12:44:38.348Z,99500.91
2019-03-05T12:47:08.055Z,99507.30
2019-03-05T12:49:39.397Z,99545.81
2019-03-05T12:52:09.131Z,99560.97
2019-03-05T12:54:38.896Z,99569.35
2019-03-05T12:57:08.653Z,99578.09
2019-03-05T12:59:38.421Z,99579.69
2019-03-05T13:02:08.155Z,99570.66
2019-03-05T13:04:37.937Z,99574.34
2019-03-05T13:07:07.770Z,99581.02
2019-03-05T13:09:37.533Z,99578.20
2019-03-05T13:12:07.361Z,99583.45
2019-03-05T13:14:38.382Z,99586.63
2019-03-05T13:17:09.391Z,99582.52
2019-03-05T13:19:39.175Z,99578.41
2019-03-05T13:22:08.937Z,99574.85
2019-03-05T13:24:38.693Z,99576.65
2019-03-05T13:27:08.455Z,99574.89
2019-03-05T13:29:38.172Z,99575.31
2019-03-05T13:32:07.942Z,99580.50
2019-03-05T13:34:37.676Z,99582.39
2019-03-05T13:37:07.458Z,99578.20
2019-03-05T13:39:37.200Z,99578.68
2019-03-05T13:42:08.009Z,99584.82
2019-03-05T13:44:38.083Z,99590.74
2019-03-05T13:47:07.858Z,99594.12
2019-03-05T13:49:56.497Z,99588.55
2019-03-05T13:52:57.708Z,99594.37
2019-03-05T13:55:30.598Z,99595.03
2019-03-05T13:58:03.503Z,99589.05
2019-03-05T14:00:33.263Z,99588.39
2019-03-05T14:03:11.409Z,99598.72
2019-03-05T14:05:50.464Z,99592.90
2019-03-05T14:08:44.753Z,99593.50
2019-03-05T14:11:14.521Z,99595.30
2019-03-05T14:13:44.329Z,99590.19
2019-03-05T14:16:15.679Z,99593.77
2019-03-05T14:18:45.471Z,99589.03
2019-03-05T14:21:15.259Z,99591.22
2019-03-05T14:23:45.017Z,99591.08
2019-03-05T14:26:14.837Z,99587.59
2019-03-05T14:28:44.681Z,99593.20
2019-03-05T14:31:14.446Z,99581.66
2019-03-05T14:33:45.764Z,99588.76
2019-03-05T14:36:15.506Z,99587.09
2019-03-05T14:38:45.279Z,99586.14
2019-03-05T14:41:15.046Z,99595.66
2019-03-05T14:43:44.878Z,99607.25
2019-03-05T14:46:14.582Z,99607.59
2019-03-05T14:48:44.406Z,99604.52
2019-03-05T14:51:14.113Z,99603.66
2019-03-05T14:53:43.944Z,99599.54
2019-03-05T14:56:13.750Z,99606.92
2019-03-05T14:58:43.501Z,99609.23
2019-03-05T15:01:13.285Z,99609.06
2019-03-05T15:03:43.021Z,99613.64
2019-03-05T15:06:12.833Z,99602.64
2019-03-05T15:08:42.672Z,99601.55
2019-03-05T15:11:12.435Z,99603.04
2019-03-05T15:13:42.273Z,99600.91
2019-03-05T15:16:12.106Z,99598.19
2019-03-05T15:18:42.132Z,99599.67
2019-03-05T15:21:11.995Z,99608.57
2019-03-05T15:23:41.974Z,99606.70
2019-03-05T15:26:11.758Z,99603.86
2019-03-05T15:28:55.738Z,99601.45
2019-03-05T15:31:16.168Z,99600.01
2019-03-05T15:33:46.034Z,99611.10
2019-03-05T15:36:23.733Z,99608.30
2019-03-05T15:38:47.318Z,99619.75
2019-03-05T15:41:17.194Z,99626.84
2019-03-05T15:43:47.181Z,99630.35
2019-03-05T15:46:18.721Z,99628.56
2019-03-05T15:48:49.201Z,99638.09
2019-03-05T15:51:19.002Z,99639.48
2019-03-05T15:53:48.849Z,99644.77
2019-03-05T15:56:18.626Z,99644.03
2019-03-05T15:58:48.410Z,99640.09
2019-03-05T16:01:22.355Z,99639.89
2019-03-05T16:03:49.635Z,99636.11
2019-03-05T16:06:19.466Z,99637.42
2019-03-05T16:08:49.204Z,99642.67
2019-03-05T16:11:18.964Z,99644.28
2019-03-05T16:13:52.367Z,99653.22
2019-03-05T16:16:22.702Z,99655.59
2019-03-05T16:18:52.439Z,99660.06
2019-03-05T16:21:22.204Z,99679.28
2019-03-05T16:23:53.397Z,99695.05
2019-03-05T16:26:24.810Z,99690.47
2019-03-05T16:28:57.364Z,99692.92
2019-03-05T16:31:29.019Z,99689.34
2019-03-05T16:34:09.526Z,99694.98
2019-03-05T16:36:40.940Z,99701.59
2019-03-05T16:39:21.583Z,99707.86
2019-03-05T16:42:09.572Z,99711.72
2019-03-05T16:44:40.858Z,99709.65
2019-03-05T16:47:27.254Z,99722.52
2019-03-05T16:50:11.419Z,99731.98
2019-03-05T16:52:45.507Z,99750.45
2019-03-05T16:55:35.135Z,99751.09
2019-03-05T16:58:18.505Z,99766.19
2019-03-05T17:00:49.822Z,99771.13
2019-03-05T17:03:27.221Z,99769.20
2019-03-05T17:06:01.491Z,99770.98
2019-03-05T17:08:41.617Z,99773.67
2019-03-05T17:11:25.027Z,99781.66
2019-03-05T17:13:54.799Z,99791.54
2019-03-05T17:16:24.722Z,99794.57
2019-03-05T17:18:54.513Z,99798.62
2019-03-05T17:31:02.997Z,99823.88
2019-03-05T17:33:34.960Z,99833.09
2019-03-05T17:36:06.343Z,99831.63
2019-03-05T17:38:37.749Z,99839.02
2019-03-05T17:41:10.105Z,99836.84
2019-03-05T17:43:44.391Z,99841.09
2019-03-05T17:46:14.351Z,99841.02
2019-03-05T17:48:46.215Z,99851.47
2019-03-05T17:51:16.416Z,99855.36
2019-03-05T17:53:46.487Z,99850.54
2019-03-05T17:56:17.128Z,99849.17
2019-03-05T17:58:49.345Z,99843.48
2019-03-05T18:01:21.798Z,99839.52
2019-03-05T18:04:02.131Z,99846.96
2019-03-05T18:06:41.527Z,99848.79
2019-03-05T18:09:13.541Z,99845.45
2019-03-05T18:11:56.389Z,99854.02
2019-03-05T18:17:33.601Z,99841.87
2019-03-05T19:42:28.791Z,99990.25
2019-03-05T19:45:02.332Z,100003.78
2019-03-05T19:47:38.530Z,100007.23
2019-03-05T21:50:07.701Z,100216.83
2019-03-05T22:05:29.919Z,100248.13
2019-03-05T22:17:45.369Z,100263.00
2019-03-05T22:20:16.928Z,100271.20
2019-03-05T22:22:46.695Z,100273.42
2019-03-05T22:25:23.436Z,100272.98
2019-03-05T22:27:53.247Z,100276.47
2019-03-05T22:30:30.615Z,100284.72
2019-03-05T22:33:00.394Z,100286.02
2019-03-05T22:35:30.176Z,100289.55
2019-03-05T22:38:00.646Z,100296.53
2019-03-05T22:40:30.442Z,100296.56
2019-03-05T22:43:00.220Z,100300.47
2019-03-05T22:45:31.230Z,100303.95
2019-03-05T22:48:01.013Z,100306.55
2019-03-05T22:50:30.786Z,100307.86
2019-03-05T22:53:00.551Z,100316.98
2019-03-05T22:55:30.292Z,100309.62
2019-03-05T22:58:00.344Z,100323.09
2019-03-05T23:00:58.259Z,100324.00
2019-03-05T23:03:29.841Z,100329.64
2019-03-05T23:06:00.382Z,100335.75
2019-03-05T23:08:30.140Z,100336.63
2019-03-05T23:10:59.998Z,100347.02
2019-03-05T23:13:29.875Z,100348.34
2019-03-05T23:15:59.883Z,100349.22
2019-03-05T23:18:30.150Z,100352.28
2019-03-05T23:20:59.883Z,100358.81
2019-03-05T23:23:29.671Z,100356.19
2019-03-05T23:25:59.402Z,100356.23
2019-03-05T23:28:29.259Z,100356.22
2019-03-05T23:30:59.004Z,100361.88
2019-03-05T23:33:28.784Z,100363.63
2019-03-05T23:35:58.562Z,100364.50
2019-03-05T23:38:28.357Z,100368.41
2019-03-05T23:40:58.119Z,100371.47
2019-03-05T23:43:27.931Z,100375.36
2019-03-05T23:45:57.704Z,100376.24
2019-03-05T23:48:27.485Z,100378.86
2019-03-05T23:50:57.537Z,100379.27
2019-03-05T23:53:27.285Z,100382.73
2019-03-05T23:55:57.059Z,100385.38
2019-03-05T23:58:26.795Z,100396.67
